createdAt,value
2018-07-15T00:01:51.452Z,6.73
2018-07-15T00:04:19.086Z,6.93
2018-07-15T00:06:46.771Z,7.77
2018-07-15T00:09:14.457Z,7.80
2018-07-15T00:11:42.065Z,6.63
2018-07-15T00:14:09.756Z,7.33
2018-07-15T00:16:37.409Z,7.07
2018-07-15T00:19:05.132Z,6.83
2018-07-15T00:21:32.860Z,6.53
2018-07-15T00:24:00.480Z,7.07
2018-07-15T00:26:28.102Z,6.83
2018-07-15T00:28:55.912Z,6.33
2018-07-15T00:31:23.527Z,6.97
2018-07-15T00:33:51.203Z,6.40
2018-07-15T00:36:18.881Z,6.67
2018-07-15T00:38:46.467Z,7.63
2018-07-15T00:41:14.141Z,7.13
2018-07-15T00:43:41.806Z,6.40
2018-07-15T00:46:09.425Z,6.50
2018-07-15T00:48:37.078Z,5.90
2018-07-15T00:51:04.888Z,5.87
2018-07-15T00:53:32.612Z,6.47
2018-07-15T00:56:00.324Z,6.93
2018-07-15T00:58:27.992Z,7.60
2018-07-15T01:01:00.649Z,6.63
2018-07-15T01:03:28.445Z,6.13
2018-07-15T01:05:56.113Z,6.73
2018-07-15T01:08:23.804Z,7.17
2018-07-15T01:10:51.439Z,7.90
2018-07-15T01:13:19.170Z,7.10
2018-07-15T01:15:46.851Z,6.73
2018-07-15T01:18:14.505Z,6.73
2018-07-15T01:20:42.238Z,6.07
2018-07-15T01:23:09.850Z,6.83
2018-07-15T01:25:37.602Z,7.03
2018-07-15T01:28:05.332Z,7.43
2018-07-15T01:30:32.994Z,6.97
2018-07-15T01:33:00.700Z,7.27
2018-07-15T01:35:28.481Z,7.93
2018-07-15T01:37:56.136Z,7.40
2018-07-15T01:40:23.839Z,6.87
2018-07-15T01:42:51.421Z,5.60
2018-07-15T01:45:19.086Z,6.67
2018-07-15T01:47:46.757Z,6.80
2018-07-15T01:50:14.408Z,7.60
2018-07-15T01:52:42.036Z,7.73
2018-07-15T01:55:09.706Z,6.20
2018-07-15T01:57:37.321Z,7.10
2018-07-15T02:00:05.257Z,6.83
2018-07-15T02:02:32.928Z,6.30
2018-07-15T02:05:00.581Z,5.53
2018-07-15T02:07:28.240Z,6.10
2018-07-15T02:09:55.919Z,6.40
2018-07-15T02:12:23.587Z,7.60
2018-07-15T02:14:51.296Z,7.27
2018-07-15T02:17:18.957Z,7.00
2018-07-15T02:19:46.614Z,6.67
2018-07-15T02:22:14.253Z,6.70
2018-07-15T02:24:41.909Z,7.50
2018-07-15T02:27:09.541Z,7.23
2018-07-15T02:29:37.177Z,6.70
2018-07-15T02:32:04.969Z,7.57
2018-07-15T02:34:32.593Z,7.10
2018-07-15T02:37:00.251Z,6.57
2018-07-15T02:39:27.888Z,7.00
2018-07-15T02:41:55.537Z,6.90
2018-07-15T02:44:23.221Z,6.37
2018-07-15T02:46:50.862Z,6.73
2018-07-15T02:49:18.536Z,7.20
2018-07-15T02:51:46.170Z,7.23
2018-07-15T02:54:13.798Z,7.00
2018-07-15T02:56:41.492Z,7.20
2018-07-15T02:59:09.129Z,5.97
2018-07-15T03:01:36.869Z,5.77
2018-07-15T03:04:04.496Z,6.07
2018-07-15T03:06:32.090Z,6.77
2018-07-15T03:08:59.751Z,6.97
2018-07-15T03:11:27.385Z,6.63
2018-07-15T03:13:55.037Z,7.17
2018-07-15T03:16:22.713Z,7.40
2018-07-15T03:18:50.400Z,6.80
2018-07-15T03:21:18.133Z,8.10
2018-07-15T03:23:45.800Z,7.57
2018-07-15T03:26:13.431Z,7.47
2018-07-15T03:28:41.174Z,7.70
2018-07-15T03:31:08.836Z,7.20
2018-07-15T03:33:36.472Z,8.33
2018-07-15T03:36:04.184Z,7.60
2018-07-15T03:38:31.845Z,7.17
2018-07-15T03:40:59.492Z,7.23
2018-07-15T03:43:27.136Z,6.73
2018-07-15T03:45:54.921Z,6.97
2018-07-15T03:48:22.544Z,7.70
2018-07-15T03:50:50.140Z,7.47
2018-07-15T03:53:17.870Z,7.73
2018-07-15T03:55:45.640Z,7.43
2018-07-15T03:58:13.286Z,6.00
2018-07-15T04:00:41.008Z,6.40
2018-07-15T04:03:08.654Z,7.33
2018-07-15T04:05:36.284Z,7.20
2018-07-15T04:08:03.929Z,7.60
2018-07-15T04:10:31.647Z,6.27
2018-07-15T04:12:59.309Z,6.37
2018-07-15T04:15:27.001Z,6.43
2018-07-15T04:18:02.086Z,6.30
2018-07-15T04:20:29.876Z,6.47
2018-07-15T04:22:57.550Z,6.10
2018-07-15T04:25:25.262Z,6.87
2018-07-15T04:27:52.949Z,5.83
2018-07-15T04:30:20.640Z,6.13
2018-07-15T04:32:48.334Z,6.33
2018-07-15T04:35:16.009Z,6.80
2018-07-15T04:37:44.688Z,6.37
2018-07-15T04:40:12.391Z,6.50
2018-07-15T04:42:40.169Z,6.17
2018-07-15T04:45:07.914Z,5.97
2018-07-15T04:47:35.618Z,6.00
2018-07-15T04:50:03.449Z,6.00
2018-07-15T04:52:31.164Z,5.55
2018-07-15T04:54:58.921Z,5.65
2018-07-15T04:57:26.613Z,4.97
2018-07-15T04:59:54.656Z,4.80
2018-07-15T05:02:22.356Z,5.03
2018-07-15T05:04:50.033Z,5.25
2018-07-15T05:07:17.765Z,4.67
2018-07-15T05:09:45.442Z,5.37
2018-07-15T05:12:13.132Z,5.05
2018-07-15T05:14:40.837Z,4.80
2018-07-15T05:17:08.466Z,4.72
2018-07-15T05:19:36.126Z,4.28
2018-07-15T05:22:03.786Z,4.90
2018-07-15T05:24:31.532Z,4.33
2018-07-15T05:26:59.237Z,4.72
2018-07-15T05:29:26.929Z,4.72
2018-07-15T05:31:54.611Z,4.50
2018-07-15T05:34:22.334Z,4.45
2018-07-15T05:36:50.093Z,4.28
2018-07-15T05:39:17.749Z,4.65
2018-07-15T05:41:45.533Z,4.47
2018-07-15T05:44:13.351Z,4.12
2018-07-15T05:46:40.995Z,3.98
2018-07-15T05:49:08.673Z,4.42
2018-07-15T05:51:36.373Z,4.53
2018-07-15T05:54:04.105Z,4.10
2018-07-15T05:56:31.824Z,4.25
2018-07-15T05:58:59.535Z,3.80
2018-07-15T06:01:27.301Z,4.42
2018-07-15T06:03:55.044Z,4.33
2018-07-15T06:06:22.780Z,4.90
2018-07-15T06:08:50.609Z,4.12
2018-07-15T06:11:18.412Z,4.42
2018-07-15T06:13:46.091Z,3.85
2018-07-15T06:16:13.786Z,4.40
2018-07-15T06:18:41.504Z,4.30
2018-07-15T06:21:09.381Z,4.45
2018-07-15T06:23:37.141Z,3.92
2018-07-15T06:26:04.849Z,4.50
2018-07-15T06:28:32.545Z,4.37
2018-07-15T06:31:00.191Z,3.98
2018-07-15T06:33:27.897Z,3.77
2018-07-15T06:35:55.577Z,3.72
2018-07-15T06:38:23.262Z,4.03
2018-07-15T06:40:50.979Z,3.52
2018-07-15T06:43:18.699Z,3.45
2018-07-15T06:45:46.376Z,3.40
2018-07-15T06:48:14.143Z,3.47
2018-07-15T06:50:41.859Z,3.85
2018-07-15T06:53:09.518Z,3.90
2018-07-15T06:55:37.260Z,3.80
2018-07-15T06:58:05.075Z,3.65
2018-07-15T07:00:32.735Z,3.67
2018-07-15T07:03:00.396Z,3.60
2018-07-15T07:05:28.047Z,3.87
2018-07-15T07:07:55.706Z,3.27
2018-07-15T07:10:23.447Z,3.17
2018-07-15T07:12:51.216Z,2.90
2018-07-15T07:15:18.899Z,2.65
2018-07-15T07:17:46.632Z,2.70
2018-07-15T07:20:14.336Z,2.75
2018-07-15T07:22:42.036Z,3.08
2018-07-15T07:25:09.728Z,3.17
2018-07-15T07:27:37.420Z,3.08
2018-07-15T07:30:05.159Z,2.77
2018-07-15T07:32:32.878Z,2.83
2018-07-15T07:35:00.550Z,2.72
2018-07-15T07:37:28.240Z,2.70
2018-07-15T07:39:55.895Z,2.50
2018-07-15T07:42:23.546Z,2.37
2018-07-15T07:44:51.204Z,3.20
2018-07-15T07:47:18.862Z,2.95
2018-07-15T07:49:46.541Z,2.98
2018-07-15T07:52:14.224Z,2.20
2018-07-15T07:54:41.940Z,2.47
2018-07-15T07:57:09.721Z,2.27
2018-07-15T07:59:37.527Z,2.20
2018-07-15T08:02:05.657Z,2.40
2018-07-15T08:04:33.380Z,2.30
2018-07-15T08:07:01.064Z,2.22
2018-07-15T08:09:28.722Z,2.22
2018-07-15T08:11:56.424Z,2.83
2018-07-15T08:14:24.124Z,2.70
2018-07-15T08:16:51.834Z,2.35
2018-07-15T08:19:19.636Z,2.58
2018-07-15T08:21:47.453Z,2.72
2018-07-15T08:24:15.424Z,2.65
2018-07-15T08:26:43.121Z,2.50
2018-07-15T08:29:10.769Z,2.98
2018-07-15T08:31:38.456Z,3.15
2018-07-15T08:34:06.361Z,2.80
2018-07-15T08:36:34.036Z,3.35
2018-07-15T08:39:01.684Z,3.12
2018-07-15T08:41:29.390Z,2.90
2018-07-15T08:43:57.087Z,3.02
2018-07-15T08:46:24.783Z,2.98
2018-07-15T08:48:52.495Z,2.15
2018-07-15T08:51:20.168Z,2.92
2018-07-15T08:53:47.831Z,2.60
2018-07-15T08:56:15.532Z,2.90
2018-07-15T08:58:43.257Z,2.70
2018-07-15T09:01:10.949Z,3.10
2018-07-15T09:03:38.709Z,3.10
2018-07-15T09:06:06.429Z,2.52
2018-07-15T09:08:34.103Z,2.80
2018-07-15T09:11:01.789Z,2.87
2018-07-15T09:13:29.489Z,2.72
2018-07-15T09:15:57.148Z,2.98
2018-07-15T09:18:24.848Z,3.05
2018-07-15T09:20:52.535Z,2.55
2018-07-15T09:23:20.148Z,2.70
2018-07-15T09:25:47.882Z,3.02
2018-07-15T09:28:15.561Z,3.10
2018-07-15T09:30:43.286Z,3.05
2018-07-15T09:33:11.107Z,3.42
2018-07-15T09:35:38.862Z,3.55
2018-07-15T09:38:06.532Z,3.87
2018-07-15T09:40:34.204Z,3.60
2018-07-15T09:43:02.017Z,3.80
2018-07-15T09:45:29.699Z,3.85
2018-07-15T09:47:57.369Z,4.20
2018-07-15T09:50:25.130Z,3.85
2018-07-15T09:52:52.808Z,4.28
2018-07-15T09:55:20.479Z,4.30
2018-07-15T09:57:48.265Z,4.97
2018-07-15T10:00:21.574Z,4.75
2018-07-15T10:02:49.291Z,5.08
2018-07-15T10:05:17.076Z,4.08
2018-07-15T10:07:44.765Z,3.92
2018-07-15T10:10:12.419Z,3.33
2018-07-15T10:12:40.148Z,3.47
2018-07-15T10:15:07.821Z,3.87
2018-07-15T10:17:35.520Z,3.45
2018-07-15T10:20:03.300Z,3.65
2018-07-15T10:22:30.978Z,3.17
2018-07-15T10:24:58.698Z,3.60
2018-07-15T10:27:26.310Z,3.20
2018-07-15T10:29:53.969Z,3.00
2018-07-15T10:32:21.702Z,3.50
2018-07-15T10:34:49.537Z,3.47
2018-07-15T10:37:17.167Z,3.85
2018-07-15T10:39:44.786Z,3.27
2018-07-15T10:42:12.517Z,3.45
2018-07-15T10:44:40.272Z,3.70
2018-07-15T10:47:08.005Z,3.80
2018-07-15T10:49:35.789Z,3.67
2018-07-15T10:52:03.479Z,3.83
2018-07-15T10:54:31.224Z,4.30
2018-07-15T10:56:58.908Z,3.98
2018-07-15T10:59:26.540Z,3.85
2018-07-15T11:01:54.299Z,4.03
2018-07-15T11:04:21.922Z,3.42
2018-07-15T11:06:50.281Z,3.47
2018-07-15T11:09:17.997Z,3.22
2018-07-15T11:11:45.692Z,3.80
2018-07-15T11:14:13.391Z,3.20
2018-07-15T11:16:41.151Z,2.87
2018-07-15T11:19:08.761Z,3.47
2018-07-15T11:21:36.446Z,3.30
2018-07-15T11:24:04.170Z,3.45
2018-07-15T11:26:31.875Z,3.42
2018-07-15T11:28:59.586Z,2.77
2018-07-15T11:31:27.293Z,3.30
2018-07-15T11:33:55.005Z,3.37
2018-07-15T11:36:22.684Z,3.33
2018-07-15T11:38:50.390Z,3.30
2018-07-15T11:41:18.048Z,3.35
2018-07-15T11:43:45.714Z,2.92
2018-07-15T11:46:13.516Z,3.20
2018-07-15T11:48:41.193Z,3.80
2018-07-15T11:51:08.888Z,3.37
2018-07-15T11:53:37.276Z,3.60
2018-07-15T11:56:05.053Z,3.65
2018-07-15T11:58:32.837Z,4.17
2018-07-15T12:01:00.586Z,4.05
2018-07-15T12:03:28.327Z,4.40
2018-07-15T12:05:55.980Z,4.17
2018-07-15T12:08:23.687Z,4.47
2018-07-15T12:10:51.325Z,3.95
2018-07-15T12:13:19.019Z,4.22
2018-07-15T12:15:46.764Z,3.77
2018-07-15T12:18:14.452Z,3.87
2018-07-15T12:20:42.110Z,4.03
2018-07-15T12:23:09.807Z,3.62
2018-07-15T12:25:37.566Z,3.65
2018-07-15T12:28:05.294Z,3.85
2018-07-15T12:30:33.017Z,3.17
2018-07-15T12:33:00.709Z,3.50
2018-07-15T12:35:28.435Z,2.70
2018-07-15T12:37:56.290Z,2.83
2018-07-15T12:40:24.051Z,3.08
2018-07-15T12:42:51.726Z,2.42
2018-07-15T12:45:19.493Z,2.80
2018-07-15T12:47:48.108Z,2.35
2018-07-15T12:50:15.810Z,2.90
2018-07-15T12:52:43.477Z,2.33
2018-07-15T12:55:11.158Z,2.80
2018-07-15T12:57:38.887Z,2.80
2018-07-15T13:00:06.593Z,2.70
2018-07-15T13:02:34.332Z,2.55
2018-07-15T13:05:02.053Z,2.33
2018-07-15T13:07:29.769Z,2.60
2018-07-15T13:09:57.500Z,2.50
2018-07-15T13:12:25.279Z,2.77
2018-07-15T13:14:52.940Z,2.85
2018-07-15T13:17:20.681Z,2.30
2018-07-15T13:19:48.416Z,2.80
2018-07-15T13:22:16.219Z,2.77
2018-07-15T13:24:43.929Z,2.62
2018-07-15T13:27:11.595Z,2.83
2018-07-15T13:29:39.287Z,2.65
2018-07-15T13:32:07.008Z,2.75
2018-07-15T13:34:34.726Z,2.20
2018-07-15T13:37:02.405Z,2.77
2018-07-15T13:39:30.080Z,2.47
2018-07-15T13:41:57.934Z,2.52
2018-07-15T13:44:25.507Z,2.85
2018-07-15T13:46:53.188Z,2.50
2018-07-15T13:49:20.848Z,2.70
2018-07-15T13:51:48.540Z,2.70
2018-07-15T13:54:16.208Z,2.52
2018-07-15T13:56:43.917Z,2.37
2018-07-15T13:59:11.557Z,2.42
2018-07-15T14:01:39.241Z,2.33
2018-07-15T14:04:07.040Z,2.65
2018-07-15T14:06:34.694Z,2.80
2018-07-15T14:09:02.378Z,2.70
2018-07-15T14:11:30.145Z,2.50
2018-07-15T14:13:57.803Z,2.70
2018-07-15T14:16:25.466Z,3.22
2018-07-15T14:18:53.110Z,2.70
2018-07-15T14:21:21.000Z,2.87
2018-07-15T14:23:48.736Z,2.33
2018-07-15T14:26:16.458Z,2.37
2018-07-15T14:28:44.149Z,2.70
2018-07-15T14:31:11.856Z,2.40
2018-07-15T14:33:39.550Z,2.40
2018-07-15T14:36:07.240Z,2.47
2018-07-15T14:38:34.946Z,2.40
2018-07-15T14:41:02.672Z,2.62
2018-07-15T14:43:30.352Z,2.55
2018-07-15T14:45:58.000Z,2.10
2018-07-15T14:48:25.680Z,2.40
2018-07-15T14:50:53.340Z,2.85
2018-07-15T14:53:21.048Z,2.70
2018-07-15T14:55:48.817Z,2.85
2018-07-15T14:58:16.478Z,2.60
2018-07-15T15:00:44.216Z,2.98
2018-07-15T15:03:11.924Z,3.10
2018-07-15T15:05:39.619Z,3.27
2018-07-15T15:08:07.437Z,2.85
2018-07-15T15:10:35.137Z,3.12
2018-07-15T15:13:03.214Z,2.85
2018-07-15T15:15:31.217Z,2.87
2018-07-15T15:17:58.986Z,2.58
2018-07-15T15:20:26.783Z,2.80
2018-07-15T15:22:54.472Z,2.95
2018-07-15T15:25:22.186Z,2.72
2018-07-15T15:27:49.881Z,2.62
2018-07-15T15:30:17.550Z,2.40
2018-07-15T15:32:45.268Z,2.62
2018-07-15T15:35:13.058Z,2.30
2018-07-15T15:37:40.792Z,2.52
2018-07-15T15:40:08.507Z,2.90
2018-07-15T15:42:36.314Z,2.92
2018-07-15T15:45:04.160Z,2.75
2018-07-15T15:47:32.492Z,3.02
2018-07-15T15:50:00.247Z,3.45
2018-07-15T15:52:27.959Z,3.30
2018-07-15T15:54:55.660Z,3.08
2018-07-15T15:57:23.420Z,3.10
2018-07-15T15:59:51.106Z,3.20
2018-07-15T16:02:18.813Z,2.85
2018-07-15T16:04:46.532Z,2.98
2018-07-15T16:07:14.247Z,2.92
2018-07-15T16:09:41.898Z,2.77
2018-07-15T16:12:09.645Z,2.83
2018-07-15T16:14:37.336Z,3.00
2018-07-15T16:17:05.065Z,2.98
2018-07-15T16:19:32.735Z,3.20
2018-07-15T16:22:00.432Z,3.17
2018-07-15T16:24:28.350Z,3.20
2018-07-15T16:26:56.065Z,2.98
2018-07-15T16:29:23.764Z,3.10
2018-07-15T16:31:51.933Z,3.15
2018-07-15T16:34:19.636Z,2.85
2018-07-15T16:36:47.342Z,2.70
2018-07-15T16:39:15.029Z,2.60
2018-07-15T16:41:43.561Z,3.10
2018-07-15T16:44:11.225Z,2.80
2018-07-15T16:46:38.905Z,2.98
2018-07-15T16:49:06.636Z,2.87
2018-07-15T16:51:34.717Z,2.85
2018-07-15T16:54:02.429Z,3.05
2018-07-15T16:56:30.102Z,2.60
2018-07-15T16:58:57.825Z,2.30
2018-07-15T17:01:25.582Z,2.62
2018-07-15T17:03:53.334Z,2.98
2018-07-15T17:06:21.189Z,2.40
2018-07-15T17:08:48.921Z,2.87
2018-07-15T17:11:16.602Z,3.00
2018-07-15T17:13:44.321Z,2.70
2018-07-15T17:16:12.056Z,2.65
2018-07-15T17:18:39.734Z,2.62
2018-07-15T17:21:07.518Z,3.22
2018-07-15T17:23:35.203Z,3.08
2018-07-15T17:26:03.020Z,2.50
2018-07-15T17:28:30.743Z,2.67
2018-07-15T17:30:58.422Z,3.12
2018-07-15T17:33:26.161Z,2.92
2018-07-15T17:35:53.869Z,2.50
2018-07-15T17:38:21.551Z,2.70
2018-07-15T17:40:49.262Z,2.70
2018-07-15T17:43:17.070Z,3.10
2018-07-15T17:45:44.969Z,2.72
2018-07-15T17:48:12.658Z,3.22
2018-07-15T17:50:40.429Z,2.62
2018-07-15T17:53:08.159Z,2.85
2018-07-15T17:55:35.924Z,3.10
2018-07-15T17:58:03.682Z,2.70
2018-07-15T18:00:31.373Z,3.22
2018-07-15T18:02:59.030Z,3.00
2018-07-15T18:05:26.808Z,3.02
2018-07-15T18:07:54.515Z,2.80
2018-07-15T18:10:22.207Z,3.12
2018-07-15T18:12:49.920Z,2.80
2018-07-15T18:15:17.609Z,2.80
2018-07-15T18:17:45.333Z,3.33
2018-07-15T18:20:13.056Z,3.12
2018-07-15T18:22:40.787Z,2.98
2018-07-15T18:25:08.566Z,3.08
2018-07-15T18:27:36.389Z,2.55
2018-07-15T18:30:04.526Z,3.42
2018-07-15T18:32:32.209Z,3.20
2018-07-15T18:34:59.902Z,2.90
2018-07-15T18:37:27.608Z,3.17
2018-07-15T18:39:55.321Z,3.47
2018-07-15T18:42:22.997Z,3.12
2018-07-15T18:44:50.758Z,3.25
2018-07-15T18:47:18.452Z,3.72
2018-07-15T18:49:46.268Z,3.40
2018-07-15T18:52:14.286Z,3.02
2018-07-15T18:54:42.082Z,3.10
2018-07-15T18:57:09.807Z,3.33
2018-07-15T18:59:37.539Z,3.10
2018-07-15T19:02:05.606Z,3.58
2018-07-15T19:04:33.335Z,3.90
2018-07-15T19:07:01.077Z,3.27
2018-07-15T19:09:28.771Z,3.33
2018-07-15T19:11:56.501Z,3.37
2018-07-15T19:14:24.323Z,3.33
2018-07-15T19:16:52.085Z,3.45
2018-07-15T19:19:19.797Z,3.80
2018-07-15T19:21:47.550Z,3.57
2018-07-15T19:24:15.252Z,2.93
2018-07-15T19:26:42.949Z,3.23
2018-07-15T19:29:10.656Z,3.80
2018-07-15T19:31:38.455Z,3.60
2018-07-15T19:34:06.202Z,3.37
2018-07-15T19:36:34.016Z,3.23
2018-07-15T19:39:01.752Z,3.07
2018-07-15T19:41:29.581Z,3.57
2018-07-15T19:43:57.341Z,3.50
2018-07-15T19:46:25.118Z,3.50
2018-07-15T19:48:52.802Z,3.37
2018-07-15T19:51:20.569Z,3.70
2018-07-15T19:53:48.329Z,3.17
2018-07-15T19:56:16.040Z,3.40
2018-07-15T19:58:43.748Z,3.47
2018-07-15T20:01:11.512Z,3.07
2018-07-15T20:03:39.203Z,3.70
2018-07-15T20:06:06.988Z,3.80
2018-07-15T20:08:34.759Z,3.77
2018-07-15T20:11:02.715Z,3.50
2018-07-15T20:13:30.402Z,3.30
2018-07-15T20:15:58.099Z,3.80
2018-07-15T20:18:25.820Z,3.70
2018-07-15T20:20:53.753Z,3.70
2018-07-15T20:23:21.532Z,3.50
2018-07-15T20:25:49.240Z,3.50
2018-07-15T20:28:16.944Z,3.57
2018-07-15T20:30:44.673Z,3.50
2018-07-15T20:33:12.386Z,3.60
2018-07-15T20:35:40.161Z,3.77
2018-07-15T20:38:07.964Z,3.93
2018-07-15T20:40:35.932Z,3.70
2018-07-15T20:43:03.758Z,4.07
2018-07-15T20:45:31.766Z,3.47
2018-07-15T20:47:59.466Z,3.63
2018-07-15T20:50:27.245Z,3.70
2018-07-15T20:52:55.088Z,3.53
2018-07-15T20:55:22.744Z,3.73
2018-07-15T20:57:50.643Z,3.63
2018-07-15T21:00:18.283Z,3.30
2018-07-15T21:02:46.014Z,3.87
2018-07-15T21:05:13.711Z,3.53
2018-07-15T21:07:41.405Z,3.40
2018-07-15T21:10:09.154Z,3.20
2018-07-15T21:12:36.909Z,3.17
2018-07-15T21:15:04.601Z,3.53
2018-07-15T21:17:32.294Z,3.33
2018-07-15T21:19:59.979Z,3.10
2018-07-15T21:22:27.683Z,2.67
2018-07-15T21:24:55.395Z,2.87
2018-07-15T21:27:23.065Z,2.67
2018-07-15T21:29:50.764Z,2.73
2018-07-15T21:32:18.478Z,2.63
2018-07-15T21:34:46.150Z,2.97
2018-07-15T21:37:13.869Z,2.50
2018-07-15T21:39:41.762Z,2.47
2018-07-15T21:42:09.493Z,2.40
2018-07-15T21:44:37.137Z,2.73
2018-07-15T21:47:04.829Z,2.57
2018-07-15T21:49:32.550Z,2.13
2018-07-15T21:52:00.277Z,2.23
2018-07-15T21:54:27.990Z,2.20
2018-07-15T21:56:55.768Z,2.60
2018-07-15T21:59:23.459Z,2.07
2018-07-15T22:01:51.296Z,2.83
2018-07-15T22:04:18.962Z,2.10
2018-07-15T22:08:00.628Z,2.00
2018-07-15T22:10:35.350Z,1.93
2018-07-15T22:13:03.202Z,1.80
2018-07-15T22:15:30.856Z,1.70
2018-07-15T22:17:58.533Z,2.10
2018-07-15T22:20:26.245Z,2.10
2018-07-15T22:22:53.918Z,2.10
2018-07-15T22:25:21.652Z,1.90
2018-07-15T22:27:49.374Z,1.80
2018-07-15T22:30:17.038Z,2.10
2018-07-15T22:32:44.768Z,2.03
2018-07-15T22:35:12.414Z,2.10
2018-07-15T22:37:40.137Z,2.10
2018-07-15T22:40:07.905Z,1.77
2018-07-15T22:42:35.608Z,2.17
2018-07-15T22:45:03.399Z,2.33
2018-07-15T22:47:31.057Z,2.10
2018-07-15T22:49:58.699Z,2.20
2018-07-15T22:52:26.367Z,2.10
2018-07-15T22:54:54.006Z,2.20
2018-07-15T22:57:21.620Z,2.20
2018-07-15T22:59:49.372Z,2.23
2018-07-15T23:02:16.989Z,2.00
2018-07-15T23:05:56.533Z,1.63
2018-07-15T23:08:25.084Z,1.83
2018-07-15T23:10:52.843Z,1.87
2018-07-15T23:13:20.883Z,2.13
2018-07-15T23:15:49.334Z,1.80
2018-07-15T23:18:17.064Z,2.00
2018-07-15T23:20:45.642Z,2.10
2018-07-15T23:23:13.743Z,1.90
2018-07-15T23:25:41.445Z,1.77
2018-07-15T23:28:10.054Z,1.70
2018-07-15T23:30:38.530Z,1.60
2018-07-15T23:33:06.732Z,1.60
2018-07-15T23:35:34.378Z,1.70
2018-07-15T23:38:02.340Z,1.43
2018-07-15T23:40:30.113Z,1.80
2018-07-15T23:42:58.393Z,1.60
2018-07-15T23:45:27.021Z,1.80
2018-07-15T23:47:55.053Z,1.47
2018-07-15T23:50:22.838Z,1.97
2018-07-15T23:52:50.562Z,1.50
2018-07-15T23:55:18.293Z,1.87
2018-07-15T23:57:46.110Z,1.43
